^^
Meteo Knjazevac Station Historical Data
Daily Summary for April 27, 2021 Units:  English    Metric   Both
Daily Weekly Monthly Yearly Custom
  High: Low: Average:
Temperature: 86 °F 59.5 °F 70.3 °F
Dew Point: 67.4 °F 56.1 °F 60.7 °F
Humidity: 98% 42% 75%
Wind Speed: 10mph 0mph 3.2mph
Wind Gust: 15mph - -
Wind- - West
Pressure: 30.05 in 29.89 in -
Precipitation: 0.00 in    
Historical Graphs
 
 
Tabular Data for April 27, 2021
Time Temperature Dew Point Pressure Wind Wind Speed Wind Gust Humidity Rainfall Rate (Hourly) solar Conditions
00:00 66.6 °F 63.5 °F 29.93 in Calm   2 mph 90% 0.00 in 0 W/m2
00:10 66.4 °F 63 °F 29.93 in Calm   2 mph 89% 0.00 in 0 W/m2
00:20 65.9 °F 62.9 °F 29.93 in Calm   3 mph 90% 0.00 in 0 W/m2
00:30 65.5 °F 62.8 °F 29.93 in Calm   3 mph 91% 0.00 in 0 W/m2
00:40 65.3 °F 62.6 °F 29.93 in Calm   2 mph 91% 0.00 in 0 W/m2
00:50 65.1 °F 63 °F 29.93 in SW 1 mph 2 mph 93% 0.00 in 0 W/m2
01:00 64.6 °F 62.6 °F 29.93 in WNW 2 mph 4 mph 93% 0.00 in 0 W/m2
01:10 64.6 °F 62.5 °F 29.93 in WNW 2 mph 4 mph 93% 0.00 in 0 W/m2
01:20 64.1 °F 62 °F 29.93 in WSW 1 mph 4 mph 93% 0.00 in 0 W/m2
01:30 63.7 °F 61.6 °F 29.93 in WSW 2 mph 4 mph 93% 0.00 in 0 W/m2
01:40 63.2 °F 61.1 °F 29.92 in West 2 mph 5 mph 93% 0.00 in 0 W/m2
01:50 63 °F 61.2 °F 29.93 in WNW 2 mph 6 mph 94% 0.00 in 0 W/m2
02:00 62.6 °F 60.5 °F 29.92 in WNW 1 mph 4 mph 93% 0.00 in 0 W/m2
02:10 62.5 °F 60.4 °F 29.92 in WSW 2 mph 3 mph 93% 0.00 in 0 W/m2
02:20 62.3 °F 60.3 °F 29.92 in WSW 2 mph 3 mph 93% 0.00 in 0 W/m2
02:30 62.1 °F 60.3 °F 29.92 in West 2 mph 4 mph 94% 0.00 in 0 W/m2
02:40 62.1 °F 60.3 °F 29.92 in WNW 1 mph 4 mph 94% 0.00 in 0 W/m2
02:50 61.9 °F 60.1 °F 29.92 in NNW 1 mph 2 mph 94% 0.00 in 0 W/m2
03:00 62.2 °F 60.5 °F 29.92 in West 1 mph 3 mph 94% 0.00 in 0 W/m2
03:10 62.1 °F 60.3 °F 29.92 in NW 1 mph 2 mph 94% 0.00 in 0 W/m2
03:20 61.9 °F 60.1 °F 29.92 in WNW 2 mph 5 mph 94% 0.00 in 0 W/m2
03:30 61.9 °F 60.1 °F 29.92 in Calm   3 mph 94% 0.00 in 0 W/m2
03:40 61.9 °F 60.1 °F 29.92 in WNW 2 mph 2 mph 94% 0.00 in 0 W/m2
03:50 61.9 °F 60.1 °F 29.92 in WSW 2 mph 3 mph 94% 0.00 in 0 W/m2
04:00 61.9 °F 60.1 °F 29.92 in WSW 1 mph 2 mph 94% 0.00 in 0 W/m2
04:10 61.9 °F 60.1 °F 29.92 in Calm   2 mph 94% 0.00 in 0 W/m2
04:20 61.7 °F 60 °F 29.92 in West 2 mph 3 mph 94% 0.00 in 0 W/m2
04:30 61.6 °F 59.8 °F 29.92 in WNW 2 mph 4 mph 94% 0.00 in 0 W/m2
04:40 61.7 °F 60.3 °F 29.92 in Calm   3 mph 95% 0.00 in 0 W/m2
04:50 61.9 °F 60.1 °F 29.92 in Calm   3 mph 94% 0.00 in 0 W/m2
05:00 61.7 °F 60 °F 29.92 in Calm   1 mph 94% 0.00 in 0 W/m2
05:10 61.5 °F 59.8 °F 29.92 in West 2 mph 2 mph 94% 0.00 in 0 W/m2
05:20 61.4 °F 59.7 °F 29.92 in West 2 mph 3 mph 94% 0.00 in 0 W/m2
05:30 61.2 °F 59.7 °F 29.92 in WNW 1 mph 3 mph 95% 0.00 in 0 W/m2
05:40 60.8 °F 59.4 °F 29.92 in West 2 mph 3 mph 95% 0.00 in 0 W/m2
05:50 60.4 °F 58.7 °F 29.92 in West 2 mph 3 mph 94% 0.00 in 3 W/m2
06:00 60.3 °F 58.8 °F 29.92 in West 2 mph 4 mph 95% 0.00 in 9 W/m2
06:10 59.9 °F 58.5 °F 29.93 in West 3 mph 6 mph 95% 0.00 in 18 W/m2
06:20 59.6 °F 58.2 °F 29.93 in West 1 mph 6 mph 95% 0.00 in 31 W/m2
06:30 59.5 °F 58.4 °F 29.93 in West 2 mph 5 mph 96% 0.00 in 42 W/m2
06:40 59.5 °F 58.4 °F 29.93 in WNW 1 mph 3 mph 96% 0.00 in 61 W/m2
06:50 59.5 °F 58.1 °F 29.93 in Calm   2 mph 95% 0.00 in 87 W/m2
07:00 59.5 °F 58.1 °F 29.93 in Calm   2 mph 95% 0.00 in 96 W/m2
07:10 59.5 °F 58.1 °F 29.93 in Calm   2 mph 95% 0.00 in 138 W/m2
07:20 59.7 °F 58.6 °F 29.93 in NNW 2 mph 3 mph 96% 0.00 in 172 W/m2
07:30 60.1 °F 58.9 °F 29.93 in NNW 1 mph 3 mph 96% 0.00 in 207 W/m2
07:40 60.6 °F 60.1 °F 29.92 in West 1 mph 3 mph 98% 0.00 in 237 W/m2
07:50 61.2 °F 60.6 °F 29.93 in WNW 1 mph 2 mph 98% 0.00 in 275 W/m2
08:00 61.7 °F 61.1 °F 29.93 in WNW 1 mph 4 mph 98% 0.00 in 315 W/m2
08:10 62.4 °F 61.8 °F 29.93 in Calm   5 mph 98% 0.00 in 350 W/m2
08:20 63.3 °F 62.2 °F 29.92 in NE 1 mph 2 mph 96% 0.00 in 389 W/m2
08:30 64.2 °F 63 °F 29.93 in West 1 mph 3 mph 96% 0.00 in 430 W/m2
08:40 66 °F 64.2 °F 29.93 in SW 1 mph 5 mph 94% 0.00 in 464 W/m2
08:50 68.1 °F 65.1 °F 29.93 in SW 1 mph 5 mph 90% 0.00 in 497 W/m2
09:00 69.6 °F 65.2 °F 29.93 in ESE 2 mph 5 mph 86% 0.00 in 526 W/m2
09:10 71 °F 65.6 °F 29.93 in SSE 2 mph 5 mph 83% 0.00 in 553 W/m2
09:20 72.3 °F 66.1 °F 29.93 in SSW 1 mph 4 mph 81% 0.00 in 580 W/m2
09:30 73.5 °F 66.3 °F 29.93 in SSE 2 mph 5 mph 78% 0.00 in 606 W/m2
09:40 74.4 °F 66.8 °F 29.93 in South 1 mph 5 mph 77% 0.00 in 631 W/m2
09:50 75.5 °F 67.4 °F 29.93 in SW 2 mph 6 mph 76% 0.00 in 318 W/m2
10:00 75.9 °F 66.2 °F 29.93 in SW 7 mph 14 mph 72% 0.00 in 678 W/m2
10:10 76.2 °F 65.7 °F 29.93 in SW 5 mph 13 mph 70% 0.00 in 393 W/m2
10:20 76.4 °F 65.1 °F 29.93 in SW 6 mph 14 mph 68% 0.00 in 596 W/m2
10:30 77.3 °F 65.5 °F 29.93 in SSW 6 mph 11 mph 67% 0.00 in 358 W/m2
10:40 78.1 °F 65.4 °F 29.93 in SSW 7 mph 13 mph 65% 0.00 in 263 W/m2
10:50 78.9 °F 65.3 °F 29.93 in SSW 6 mph 12 mph 63% 0.00 in 157 W/m2
11:00 79.7 °F 65 °F 29.93 in SSW 6 mph 9 mph 61% 0.00 in 150 W/m2
11:10 80.2 °F 65.1 °F 29.93 in SW 8 mph 14 mph 60% 0.00 in 348 W/m2
11:20 80.4 °F 64.3 °F 29.93 in SW 8 mph 12 mph 58% 0.00 in 247 W/m2
11:30 80.6 °F 64.9 °F 29.93 in SW 7 mph 13 mph 59% 0.00 in 337 W/m2
11:40 79.9 °F 62.3 °F 29.92 in SW 8 mph 13 mph 55% 0.00 in 494 W/m2
11:50 80.4 °F 62.2 °F 29.92 in SW 6 mph 13 mph 54% 0.00 in 587 W/m2
12:00 81.1 °F 62.9 °F 29.92 in SW 9 mph 15 mph 54% 0.00 in 846 W/m2
12:10 81.3 °F 60.9 °F 29.92 in SW 6 mph 13 mph 50% 0.00 in 850 W/m2
12:20 81.7 °F 62.3 °F 29.92 in SW 6 mph 13 mph 52% 0.00 in 852 W/m2
12:30 82.2 °F 61.2 °F 29.91 in South 7 mph 13 mph 49% 0.00 in 853 W/m2
12:40 82.6 °F 62.1 °F 29.91 in SSW 3 mph 11 mph 50% 0.00 in 853 W/m2
12:50 83.1 °F 62.5 °F 29.91 in SSW 5 mph 7 mph 50% 0.00 in 850 W/m2
13:00 84 °F 62.8 °F 29.91 in SW 7 mph 12 mph 49% 0.00 in 846 W/m2
13:10 84 °F 61.6 °F 29.91 in SSW 8 mph 13 mph 47% 0.00 in 841 W/m2
13:20 84.3 °F 61.9 °F 29.91 in SW 7 mph 12 mph 47% 0.00 in 834 W/m2
13:30 84.4 °F 60.1 °F 29.91 in SSW 3 mph 13 mph 44% 0.00 in 825 W/m2
13:40 84.9 °F 59.3 °F 29.91 in SSW 10 mph 15 mph 42% 0.00 in 815 W/m2
13:50 84.9 °F 59.9 °F 29.91 in SW 7 mph 15 mph 43% 0.00 in 555 W/m2
14:00 84.4 °F 60.1 °F 29.91 in SW 6 mph 14 mph 44% 0.00 in 572 W/m2
14:10 84 °F 59.8 °F 29.91 in SSW 6 mph 10 mph 44% 0.00 in 775 W/m2
14:20 84.6 °F 60.9 °F 29.90 in SW 3 mph 9 mph 45% 0.00 in 759 W/m2
14:30 85.1 °F 60.7 °F 29.90 in SW 6 mph 8 mph 44% 0.00 in 742 W/m2
14:40 85.6 °F 61.9 °F 29.90 in SW 7 mph 12 mph 45% 0.00 in 723 W/m2
14:50 85.8 °F 61.4 °F 29.90 in SW 7 mph 12 mph 44% 0.00 in 703 W/m2
15:00 85.8 °F 61.4 °F 29.90 in SW 6 mph 10 mph 44% 0.00 in 681 W/m2
15:10 86 °F 61.5 °F 29.89 in SW 2 mph 10 mph 44% 0.00 in 659 W/m2
15:20 85.8 °F 60.8 °F 29.89 in SW 3 mph 10 mph 43% 0.00 in 308 W/m2
15:30 84.6 °F 62.7 °F 29.90 in West 8 mph 14 mph 48% 0.00 in 346 W/m2
15:40 83.1 °F 62 °F 29.91 in West 9 mph 14 mph 49% 0.00 in 267 W/m2
15:50 82.2 °F 62.8 °F 29.91 in WNW 5 mph 13 mph 52% 0.00 in 262 W/m2
16:00 81.5 °F 62.7 °F 29.91 in WNW 5 mph 11 mph 53% 0.00 in 205 W/m2
16:10 81.1 °F 62.4 °F 29.91 in NW 2 mph 8 mph 53% 0.00 in 216 W/m2
16:20 80.8 °F 62.1 °F 29.91 in WNW 2 mph 10 mph 53% 0.00 in 197 W/m2
16:30 80.4 °F 62.2 °F 29.92 in NNW 5 mph 7 mph 54% 0.00 in 209 W/m2
16:40 79.9 °F 61.2 °F 29.92 in NNW 7 mph 8 mph 53% 0.00 in 216 W/m2
16:50 79.9 °F 61.7 °F 29.92 in NNW 6 mph 11 mph 54% 0.00 in 199 W/m2
17:00 79.5 °F 61.4 °F 29.92 in NNW 3 mph 8 mph 54% 0.00 in 211 W/m2
17:10 79.2 °F 61.6 °F 29.93 in NW 3 mph 11 mph 55% 0.00 in 122 W/m2
17:20 78.1 °F 60.6 °F 29.93 in WNW 5 mph 12 mph 55% 0.00 in 79 W/m2
17:30 77.2 °F 60.8 °F 29.93 in NW 2 mph 9 mph 57% 0.00 in 80 W/m2
17:40 75.9 °F 60.6 °F 29.94 in WNW 3 mph 11 mph 59% 0.00 in 67 W/m2
17:50 75.2 °F 59.9 °F 29.94 in NW 3 mph 7 mph 59% 0.00 in 54 W/m2
18:00 74.7 °F 59.9 °F 29.95 in North 3 mph 12 mph 60% 0.00 in 47 W/m2
18:10 73.9 °F 59.2 °F 29.95 in North 3 mph 10 mph 60% 0.00 in 32 W/m2
18:20 73.2 °F 59.4 °F 29.95 in North 5 mph 10 mph 62% 0.00 in 38 W/m2
18:30 72.7 °F 59.4 °F 29.95 in North 5 mph 11 mph 63% 0.00 in 14 W/m2
18:40 72.2 °F 58.9 °F 29.95 in NNW 5 mph 9 mph 63% 0.00 in 9 W/m2
18:50 71.6 °F 58.8 °F 29.96 in North 3 mph 8 mph 64% 0.00 in 6 W/m2
19:00 71.1 °F 58.3 °F 29.96 in NNW 3 mph 8 mph 64% 0.00 in 5 W/m2
19:10 70.9 °F 58.5 °F 29.97 in North 2 mph 7 mph 65% 0.00 in 2 W/m2
19:20 70.5 °F 58.2 °F 29.97 in North 3 mph 6 mph 65% 0.00 in 0 W/m2
19:30 70.2 °F 58.7 °F 29.98 in NNW 2 mph 5 mph 67% 0.00 in 0 W/m2
19:40 69.8 °F 58.8 °F 29.99 in North 1 mph 6 mph 68% 0.00 in 0 W/m2
19:50 69.4 °F 58.8 °F 29.99 in WNW 6 mph 10 mph 69% 0.00 in 0 W/m2
20:00 68.7 °F 58.5 °F 30.00 in West 7 mph 13 mph 70% 0.00 in 0 W/m2
20:10 67.8 °F 57.7 °F 30.00 in WNW 7 mph 15 mph 70% 0.00 in 0 W/m2
20:20 67.1 °F 57.8 °F 30.00 in West 3 mph 11 mph 72% 0.00 in 0 W/m2
20:40 66.4 °F 57.8 °F 30.01 in West 2 mph 6 mph 74% 0.00 in 0 W/m2
20:50 66.2 °F 58 °F 30.01 in WSW 2 mph 4 mph 75% 0.00 in 0 W/m2
21:00 66 °F 57.9 °F 30.01 in WSW 2 mph 5 mph 75% 0.00 in 0 W/m2
21:10 65.5 °F 58.1 °F 30.02 in West 2 mph 4 mph 77% 0.00 in 0 W/m2
21:20 65.3 °F 57.9 °F 30.02 in WNW 3 mph 5 mph 77% 0.00 in 0 W/m2
21:30 65.1 °F 57.7 °F 30.02 in West 2 mph 4 mph 77% 0.00 in 0 W/m2
21:40 64.8 °F 57.8 °F 30.02 in West 3 mph 6 mph 78% 0.00 in 0 W/m2
21:50 64.6 °F 57.6 °F 30.02 in WSW 3 mph 9 mph 78% 0.00 in 0 W/m2
22:00 64.2 °F 57.6 °F 30.03 in West 3 mph 6 mph 79% 0.00 in 0 W/m2
22:10 64 °F 57.4 °F 30.04 in West 3 mph 7 mph 79% 0.00 in 0 W/m2
22:20 63.7 °F 57 °F 30.04 in SW 3 mph 6 mph 79% 0.00 in 0 W/m2
22:30 63.5 °F 57.2 °F 30.04 in WSW 3 mph 7 mph 80% 0.00 in 0 W/m2
22:40 63.1 °F 56.9 °F 30.04 in SW 3 mph 7 mph 80% 0.00 in 0 W/m2
22:50 63 °F 56.7 °F 30.04 in WSW 3 mph 6 mph 80% 0.00 in 0 W/m2
23:00 62.6 °F 56.7 °F 30.04 in SW 2 mph 5 mph 81% 0.00 in 0 W/m2
23:10 62.2 °F 56.3 °F 30.05 in WSW 2 mph 6 mph 81% 0.00 in 0 W/m2
23:20 62.1 °F 56.8 °F 30.05 in WSW 3 mph 5 mph 83% 0.00 in 0 W/m2
23:30 61.5 °F 56.3 °F 30.05 in SW 2 mph 6 mph 83% 0.00 in 0 W/m2
23:40 61.2 °F 56.3 °F 30.05 in SW 3 mph 6 mph 84% 0.00 in 0 W/m2
23:50 61 °F 56.1 °F 30.05 in WSW 2 mph 7 mph 84% 0.00 in 0 W/m2
Knjazevac, Serbia
Compliments of Weather Underground - 2 mb